Time;durP1;ratioP1;P1;durP2;ratioP2;P2;SDS_P1;SDS_P2;PMS_P1;PMS_P2;Temp;Humidity;BMP_temperature;BMP_pressure;BME280_temperature;BME280_humidity;BME280_pressure;Samples;Min_cycle;Max_cycle;Signal;HPM_P1;HPM_P2
2021/12/16 00:08:44;;;;;;;21.83;9.52;;;7.90;99.90;;;;;;5014070;28;20385;-62
2021/12/16 00:33:14;;;;;;;14.48;9.63;;;8.00;99.90;;;;;;5014345;28;20050;-63
2021/12/16 00:35:43;;;;;;;22.27;11.68;;;8.10;99.90;;;;;;5016773;28;20081;-63
2021/12/16 00:38:10;;;;;;;17.45;10.00;;;8.00;99.90;;;;;;5016233;28;20042;-62
2021/12/16 00:40:41;;;;;;;25.63;10.73;;;8.20;99.90;;;;;;5014920;28;20030;-63
2021/12/16 00:49:06;;;;;;;21.00;10.30;;;8.00;99.90;;;;;;5013495;28;20129;-62
2021/12/16 00:54:16;;;;;;;23.58;11.05;;;8.10;99.90;;;;;;5015836;28;20054;-66
2021/12/16 00:56:52;;;;;;;21.20;11.25;;;8.10;99.90;;;;;;5023687;28;20054;-66
2021/12/16 00:59:19;;;;;;;20.27;11.23;;;7.90;99.90;;;;;;5035796;28;20091;-66
2021/12/16 01:05:18;;;;;;;23.92;12.45;;;8.00;99.90;;;;;;5038925;28;20143;-66
2021/12/16 01:34:39;;;;;;;26.20;14.77;;;;;;;;;;5855530;22;20028;-94
2021/12/16 01:42:41;;;;;;;29.90;15.90;;;;;;;;;;5015892;28;20057;-94
2021/12/16 01:50:38;;;;;;;30.17;14.57;;;;;;;;;;5017376;28;20335;-94
2021/12/16 01:53:24;;;;;;;26.52;13.98;;;7.90;99.90;;;;;;5000015;28;20038;-95
2021/12/16 01:55:59;;;;;;;28.23;15.85;;;;;;;;;;4999592;28;20038;-94
2021/12/16 01:58:29;;;;;;;28.65;14.82;;;;;;;;;;4995517;28;20133;-95
2021/12/16 02:01:19;;;;;;;33.35;17.00;;;7.80;99.90;;;;;;4980355;28;20493;-94
2021/12/16 02:03:52;;;;;;;24.98;14.00;;;;;;;;;;4978596;28;20473;-94
2021/12/16 02:08:58;;;;;;;26.20;14.40;;;;;;;;;;4995661;28;20473;-94
2021/12/16 02:11:52;;;;;;;25.42;14.60;;;7.80;99.90;;;;;;4980103;28;20109;-96
2021/12/16 02:28:31;;;;;;;30.80;14.52;;;;;;;;;;4940235;28;20137;-94
2021/12/16 02:37:03;;;;;;;28.30;15.10;;;7.70;99.90;;;;;;4959900;28;20059;-95
2021/12/16 02:39:27;;;;;;;26.67;15.00;;;;;;;;;;4956464;28;20206;-95
2021/12/16 02:42:05;;;;;;;28.83;14.80;;;7.70;99.90;;;;;;4943560;28;20042;-95
2021/12/16 02:44:39;;;;;;;31.85;15.50;;;;;;;;;;4946793;28;20243;-96
2021/12/16 02:49:57;;;;;;;28.48;15.85;;;;;;;;;;4993831;28;20054;-94
2021/12/16 02:52:26;;;;;;;31.20;16.00;;;7.80;99.90;;;;;;4978093;28;20108;-95
2021/12/16 02:54:53;;;;;;;31.23;15.75;;;;;;;;;;4976677;28;20125;-95
2021/12/16 02:57:19;;;;;;;30.20;15.90;;;;;;;;;;4994626;28;20050;-95
2021/12/16 02:59:46;;;;;;;27.67;14.75;;;;;;;;;;4996127;28;20073;-94
2021/12/16 03:02:15;;;;;;;31.42;17.42;;;;;;;;;;4980541;28;20073;-95
2021/12/16 03:04:43;;;;;;;32.90;16.65;;;;;;;;;;4996449;28;20061;-95
2021/12/16 03:07:12;;;;;;;29.20;16.15;;;;;;;;;;4980362;28;20091;-94
2021/12/16 03:10:06;;;;;;;33.10;16.48;;;7.70;99.90;;;;;;5013420;28;20057;-94
2021/12/16 03:13:05;;;;;;;27.88;17.00;;;7.60;99.90;;;;;;5012151;28;20132;-94
2021/12/16 03:15:43;;;;;;;29.98;15.73;;;;;;;;;;5009912;28;20050;-95
2021/12/16 03:19:09;;;;;;;31.58;16.15;;;;;;;;;;4998522;28;20095;-95
2021/12/16 03:21:06;;;;;;;32.25;15.68;;;7.80;99.90;;;;;;5003681;28;20061;-95
2021/12/16 03:24:23;;;;;;;32.17;15.93;;;;;;;;;;4997031;28;20073;-95
2021/12/16 03:31:59;;;;;;;25.27;14.20;;;;;;;;;;5014890;28;20052;-95
2021/12/16 03:37:28;;;;;;;26.63;14.30;;;;;;;;;;4956257;28;20085;-95
2021/12/16 03:39:59;;;;;;;25.55;13.88;;;7.50;99.90;;;;;;4971290;28;20058;-94
2021/12/16 03:42:25;;;;;;;28.63;13.35;;;;;;;;;;4995704;28;20046;-94
2021/12/16 03:44:54;;;;;;;28.50;13.63;;;;;;;;;;4995831;28;20432;-94
2021/12/16 03:47:22;;;;;;;28.27;13.68;;;;;;;;;;4995634;28;20503;-94
2021/12/16 03:49:49;;;;;;;25.58;13.68;;;;;;;;;;4995501;28;20125;-95
2021/12/16 03:52:16;;;;;;;25.17;13.35;;;;;;;;;;4996510;28;20053;-96
2021/12/16 03:54:49;;;;;;;22.50;12.73;;;;;;;;;;4995836;28;20034;-94
2021/12/16 03:57:16;;;;;;;23.55;13.63;;;;;;;;;;4980632;28;20049;-95
2021/12/16 03:59:42;;;;;;;28.58;14.05;;;;;;;;;;4980332;28;20532;-94
2021/12/16 04:02:10;;;;;;;27.45;14.48;;;;;;;;;;4992449;28;20389;-94
2021/12/16 04:04:38;;;;;;;21.92;12.40;;;;;;;;;;4992203;28;20490;-95
2021/12/16 04:07:05;;;;;;;26.05;13.52;;;;;;;;;;4992251;28;20038;-94
2021/12/16 04:09:32;;;;;;;26.45;12.98;;;;;;;;;;4976323;28;20129;-94
2021/12/16 04:12:08;;;;;;;22.38;12.88;;;7.10;99.90;;;;;;5009308;28;20050;-94
2021/12/16 04:14:35;;;;;;;24.95;14.23;;;;;;;;;;4991291;28;20405;-94
2021/12/16 04:17:03;;;;;;;26.52;15.00;;;;;;;;;;4992256;28;20493;-95
2021/12/16 04:19:30;;;;;;;22.83;13.60;;;6.90;99.90;;;;;;4992327;28;20043;-94
2021/12/16 04:21:58;;;;;;;23.13;13.27;;;;;;;;;;4975983;28;20045;-95
2021/12/16 04:24:24;;;;;;;27.60;13.30;;;;;;;;;;4992547;28;20465;-95
2021/12/16 04:26:52;;;;;;;26.38;14.85;;;7.00;99.90;;;;;;4991459;28;20049;-94
2021/12/16 04:29:19;;;;;;;25.23;12.25;;;;;;;;;;4975876;28;20042;-94
2021/12/16 04:31:46;;;;;;;27.40;13.88;;;;;;;;;;4991788;28;20046;-94
2021/12/16 04:34:12;;;;;;;26.98;13.63;;;;;;;;;;4979400;28;20137;-95
2021/12/16 04:36:39;;;;;;;28.50;15.13;;;;;;;;;;4997585;28;20038;-94
2021/12/16 04:39:08;;;;;;;19.38;12.90;;;7.10;99.90;;;;;;4996619;28;20355;-95
2021/12/16 04:41:35;;;;;;;24.67;12.13;;;;;;;;;;4997030;28;20041;-94
2021/12/16 04:44:03;;;;;;;16.27;8.88;;;;;;;;;;4996621;28;20057;-94
2021/12/16 04:46:31;;;;;;;61.90;13.77;;;7.00;99.90;;;;;;4996368;28;20042;-94
2021/12/16 04:48:59;;;;;;;17.00;9.80;;;7.10;99.90;;;;;;4995420;28;20062;-95
2021/12/16 04:51:31;;;;;;;16.88;10.75;;;6.80;99.90;;;;;;4979877;28;20481;-94
2021/12/16 04:53:57;;;;;;;23.70;11.80;;;;;;;;;;4980757;28;20058;-95
2021/12/16 04:56:23;;;;;;;19.92;11.20;;;;;;;;;;4996899;28;20053;-95
2021/12/16 04:58:50;;;;;;;24.00;12.93;;;;;;;;;;4997261;28;20096;-94
2021/12/16 05:01:17;;;;;;;24.50;14.52;;;;;;;;;;4997631;28;20038;-95
2021/12/16 05:03:43;;;;;;;29.38;15.68;;;;;;;;;;4998053;28;20096;-95
2021/12/16 05:06:09;;;;;;;26.88;14.73;;;;;;;;;;4996326;28;20042;-95
2021/12/16 05:08:36;;;;;;;31.83;16.50;;;;;;;;;;4998459;28;20042;-95
2021/12/16 05:11:03;;;;;;;28.38;16.98;;;;;;;;;;4997371;28;20038;-95
2021/12/16 05:13:30;;;;;;;34.15;16.67;;;;;;;;;;4995740;28;20053;-95
2021/12/16 05:16:13;;;;;;;33.05;16.52;;;;;;;;;;5001658;28;20501;-96
2021/12/16 05:18:40;;;;;;;32.05;16.40;;;;;;;;;;4994550;28;20076;-95
2021/12/16 05:21:27;;;;;;;32.97;15.50;;;;;;;;;;4975138;28;20042;-95
2021/12/16 05:26:39;;;;;;;28.73;14.13;;;;;;;;;;5014116;28;20037;-96
2021/12/16 05:29:05;;;;;;;24.08;12.82;;;;;;;;;;4984468;28;20042;-95
2021/12/16 05:31:33;;;;;;;26.20;13.65;;;;;;;;;;4998844;28;20400;-95
2021/12/16 05:34:00;;;;;;;28.73;13.88;;;;;;;;;;4996621;28;20065;-95
2021/12/16 05:36:26;;;;;;;27.50;14.25;;;;;;;;;;5000499;28;20058;-95
2021/12/16 05:38:52;;;;;;;25.90;14.20;;;;;;;;;;5001257;28;20085;-94
2021/12/16 05:41:21;;;;;;;30.40;14.15;;;7.10;99.90;;;;;;5001225;28;20073;-94
2021/12/16 05:43:48;;;;;;;26.35;14.50;;;;;;;;;;4999334;28;20077;-95
2021/12/16 05:46:16;;;;;;;24.10;13.13;;;;;;;;;;4999907;28;20042;-95
2021/12/16 05:48:47;;;;;;;25.02;12.55;;;7.00;99.90;;;;;;4999916;28;20381;-95
2021/12/16 05:51:27;;;;;;;18.63;12.77;;;7.00;99.90;;;;;;4994399;28;20044;-94
2021/12/16 05:53:54;;;;;;;21.80;12.15;;;;;;;;;;4993009;28;20042;-94
2021/12/16 05:56:22;;;;;;;21.23;11.50;;;;;;;;;;4986874;28;20045;-94
2021/12/16 05:58:48;;;;;;;31.98;13.73;;;;;;;;;;4996746;28;20046;-95
2021/12/16 06:01:41;;;;;;;27.08;11.63;;;;;;;;;;5002358;28;20030;-96
2021/12/16 06:04:50;;;;;;;21.45;11.05;;;;;;;;;;5008049;28;20042;-96
2021/12/16 06:07:17;;;;;;;20.70;11.75;;;;;;;;;;5016481;28;20136;-96
2021/12/16 06:09:43;;;;;;;20.90;10.18;;;;;;;;;;4981700;28;20090;-95
2021/12/16 06:12:10;;;;;;;15.02;10.27;;;;;;;;;;4981697;28;20132;-94
2021/12/16 06:15:03;;;;;;;15.80;9.20;;;;;;;;;;4992630;28;20042;-95
2021/12/16 06:28:12;;;;;;;24.75;13.15;;;;;;;;;;5011933;28;20044;-94
2021/12/16 06:30:43;;;;;;;29.80;16.17;;;7.10;99.90;;;;;;4996070;28;20095;-94
2021/12/16 06:33:13;;;;;;;29.95;15.55;;;6.90;99.90;;;;;;4995628;28;20088;-94
2021/12/16 06:35:39;;;;;;;28.60;16.13;;;7.20;99.90;;;;;;4994127;28;20057;-94
2021/12/16 06:38:06;;;;;;;25.25;15.32;;;7.20;99.90;;;;;;4979289;28;20053;-95
2021/12/16 06:40:32;;;;;;;32.72;16.45;;;;;;;;;;4963534;28;20038;-96
2021/12/16 06:43:00;;;;;;;28.05;15.48;;;;;;;;;;5003743;23;20074;-66
2021/12/16 06:45:27;;;;;;;35.53;17.13;;;7.30;99.90;;;;;;4993687;28;20491;-66
2021/12/16 06:48:11;;;;;;;34.90;18.23;;;7.30;99.90;;;;;;4993807;28;20038;-66
2021/12/16 06:53:16;;;;;;;;;;;7.40;99.90;;;;;;4973111;28;20051;-65
2021/12/16 06:56:01;;;;;;;36.50;19.63;;;;;;;;;;4957205;28;19968;-66
2021/12/16 06:58:36;;;;;;;34.85;16.58;;;;;;;;;;4993799;28;20105;-66
2021/12/16 07:01:14;;;;;;;37.67;17.73;;;7.20;99.90;;;;;;4992561;28;20042;-66
2021/12/16 07:03:48;;;;;;;34.33;17.27;;;7.30;99.90;;;;;;4987030;28;20078;-67
2021/12/16 07:06:18;;;;;;;31.90;16.90;;;7.20;99.90;;;;;;4988083;28;20396;-66
2021/12/16 07:08:44;;;;;;;33.95;16.88;;;7.20;99.90;;;;;;4979276;28;20128;-66
2021/12/16 07:11:11;;;;;;;35.60;17.73;;;7.20;99.90;;;;;;4981688;28;20038;-67
2021/12/16 07:13:40;;;;;;;34.10;16.48;;;7.10;99.90;;;;;;4979226;28;20093;-65
2021/12/16 07:16:06;;;;;;;36.50;17.63;;;7.20;99.90;;;;;;4979170;28;20053;-66
2021/12/16 07:18:32;;;;;;;35.90;18.75;;;7.20;99.90;;;;;;4985021;28;20035;-64
2021/12/16 07:20:58;;;;;;;38.88;17.73;;;7.10;99.90;;;;;;4982665;28;20042;-65
2021/12/16 07:23:24;;;;;;;30.13;16.63;;;7.20;99.90;;;;;;4984515;28;20085;-65
2021/12/16 07:25:49;;;;;;;34.33;17.88;;;7.10;99.90;;;;;;4980338;28;20050;-65
2021/12/16 07:28:16;;;;;;;33.88;17.40;;;;;;;;;;4985843;28;20406;-65
2021/12/16 07:30:44;;;;;;;32.30;17.98;;;7.10;99.90;;;;;;4983330;28;20051;-64
2021/12/16 07:33:12;;;;;;;49.85;19.63;;;7.00;99.90;;;;;;4985738;28;20034;-65
2021/12/16 07:35:39;;;;;;;29.52;17.15;;;7.10;99.90;;;;;;4980399;28;20113;-64
2021/12/16 07:38:06;;;;;;;29.30;15.68;;;7.00;99.90;;;;;;4983963;28;20045;-64
2021/12/16 07:40:33;;;;;;;26.27;15.60;;;7.00;99.90;;;;;;4979955;28;20515;-65
2021/12/16 07:43:12;;;;;;;25.00;13.73;;;;;;;;;;4981960;28;20043;-63
2021/12/16 07:45:42;;;;;;;33.03;16.55;;;7.00;99.90;;;;;;4983081;28;20500;-66
2021/12/16 07:48:09;;;;;;;22.45;14.80;;;6.80;99.90;;;;;;4983479;28;20038;-65
2021/12/16 07:50:36;;;;;;;29.60;15.68;;;;;;;;;;4982360;28;20121;-64
2021/12/16 07:53:03;;;;;;;28.25;16.55;;;;;;;;;;4988493;28;20125;-65
2021/12/16 07:55:29;;;;;;;37.20;17.38;;;;;;;;;;4983726;28;20046;-62
2021/12/16 07:57:54;;;;;;;30.88;16.23;;;6.90;99.90;;;;;;4987023;28;20093;-64
2021/12/16 08:00:24;;;;;;;35.72;18.73;;;7.20;99.90;;;;;;4991140;28;20038;-65
2021/12/16 08:02:50;;;;;;;36.33;18.38;;;7.10;99.90;;;;;;4990588;28;20570;-65
2021/12/16 08:05:18;;;;;;;38.05;18.83;;;7.10;99.90;;;;;;4997494;28;20038;-64
2021/12/16 08:07:43;;;;;;;49.67;21.35;;;7.10;99.90;;;;;;5003649;28;20042;-64
2021/12/16 08:10:13;;;;;;;52.03;20.52;;;6.90;99.90;;;;;;4995408;28;20064;-65
2021/12/16 08:12:39;;;;;;;59.35;21.92;;;;;;;;;;4998619;28;20165;-63
2021/12/16 08:15:06;;;;;;;99.30;23.05;;;7.10;99.90;;;;;;4997052;28;20045;-65
2021/12/16 08:17:32;;;;;;;59.92;21.85;;;7.20;99.90;;;;;;4996605;28;20038;-65
2021/12/16 08:19:58;;;;;;;71.82;22.05;;;7.20;99.90;;;;;;4994272;28;20542;-64
2021/12/16 08:22:24;;;;;;;49.65;21.77;;;;;;;;;;4995959;28;20088;-65
2021/12/16 08:24:50;;;;;;;135.10;26.02;;;7.30;99.90;;;;;;4995732;28;20069;-65
2021/12/16 08:27:16;;;;;;;130.13;25.48;;;7.30;99.90;;;;;;4997489;28;20069;-64
2021/12/16 08:29:42;;;;;;;101.15;23.08;;;;;;;;;;4996051;28;20549;-64
2021/12/16 08:32:09;;;;;;;168.48;28.92;;;7.40;99.90;;;;;;4995848;28;20503;-65
2021/12/16 08:34:37;;;;;;;77.65;21.67;;;7.40;99.90;;;;;;4995731;28;20046;-65
2021/12/16 08:37:06;;;;;;;50.15;21.05;;;;;;;;;;4993409;28;20515;-64
2021/12/16 08:39:33;;;;;;;68.70;20.58;;;7.40;99.90;;;;;;4995882;28;20147;-64
2021/12/16 08:42:00;;;;;;;99.28;21.95;;;7.50;99.90;;;;;;4994404;28;20082;-63
2021/12/16 08:44:26;;;;;;;76.50;21.27;;;7.50;99.90;;;;;;4995672;28;20046;-64
2021/12/16 08:46:56;;;;;;;65.82;19.90;;;7.60;99.90;;;;;;4981503;28;20039;-64
2021/12/16 08:49:21;;;;;;;70.85;19.73;;;7.40;99.90;;;;;;4995935;28;20121;-64
2021/12/16 08:51:52;;;;;;;62.22;19.13;;;7.50;99.90;;;;;;4988640;28;20506;-65
2021/12/16 08:54:19;;;;;;;57.97;18.45;;;7.50;99.90;;;;;;4994931;28;20396;-65
2021/12/16 08:56:45;;;;;;;40.40;16.02;;;;;;;;;;4993441;28;20064;-64
2021/12/16 08:59:11;;;;;;;34.60;16.00;;;7.60;99.90;;;;;;4995078;28;20042;-64
2021/12/16 09:01:42;;;;;;;28.70;15.98;;;7.70;99.90;;;;;;4982975;28;20373;-64
2021/12/16 09:04:08;;;;;;;66.93;17.42;;;;;;;;;;4978673;28;20389;-65
2021/12/16 09:06:34;;;;;;;46.78;16.30;;;;;;;;;;4975704;28;20045;-62
2021/12/16 09:09:01;;;;;;;42.08;15.50;;;7.50;99.90;;;;;;4975353;28;20046;-64
2021/12/16 09:11:30;;;;;;;41.75;16.13;;;7.60;99.90;;;;;;4982901;28;20030;-63
2021/12/16 09:13:58;;;;;;;54.83;15.55;;;7.60;99.90;;;;;;4994381;28;20049;-64
2021/12/16 09:16:26;;;;;;;49.42;15.95;;;7.70;99.90;;;;;;4991617;28;20050;-64
2021/12/16 09:18:54;;;;;;;35.70;15.57;;;7.60;99.90;;;;;;4993457;28;20443;-64
2021/12/16 09:21:22;;;;;;;36.88;15.35;;;;;;;;;;4992840;28;20488;-64
2021/12/16 09:23:50;;;;;;;44.22;15.13;;;7.50;99.90;;;;;;4993779;28;20496;-64
2021/12/16 09:26:17;;;;;;;31.30;15.55;;;7.60;99.90;;;;;;4978778;28;20034;-64
2021/12/16 09:28:44;;;;;;;28.25;15.10;;;7.80;99.90;;;;;;4994116;28;20057;-64
2021/12/16 09:31:12;;;;;;;23.83;14.43;;;7.60;99.90;;;;;;4996381;28;20117;-65
2021/12/16 09:33:44;;;;;;;29.02;14.60;;;7.70;99.90;;;;;;4994984;28;20054;-65
2021/12/16 09:36:13;;;;;;;26.80;15.05;;;7.80;99.90;;;;;;4993225;28;20045;-65
2021/12/16 09:38:40;;;;;;;30.23;15.70;;;7.60;99.90;;;;;;4993935;28;20478;-64
2021/12/16 09:41:06;;;;;;;37.30;15.23;;;;;;;;;;4993642;28;20094;-65
2021/12/16 09:43:35;;;;;;;23.67;13.35;;;7.70;99.90;;;;;;4992708;28;20137;-62
2021/12/16 09:46:03;;;;;;;28.90;15.07;;;;;;;;;;4993525;28;20034;-63
2021/12/16 09:48:31;;;;;;;34.55;14.00;;;7.80;99.90;;;;;;4989432;28;20112;-65
2021/12/16 09:50:57;;;;;;;30.25;15.10;;;;;;;;;;4987205;28;20563;-64
2021/12/16 09:53:23;;;;;;;34.45;14.18;;;;;;;;;;4986025;28;20057;-65
2021/12/16 09:55:57;;;;;;;37.17;15.10;;;7.70;99.90;;;;;;4988776;28;20045;-65
2021/12/16 09:58:24;;;;;;;39.38;13.60;;;7.60;99.90;;;;;;4988387;28;20272;-64
2021/12/16 10:00:50;;;;;;;30.50;14.55;;;7.80;99.90;;;;;;4992317;28;20069;-64
2021/12/16 10:03:16;;;;;;;34.08;15.02;;;7.70;99.90;;;;;;4992111;28;20082;-65
2021/12/16 10:05:42;;;;;;;48.13;15.10;;;7.80;99.90;;;;;;4976047;28;20065;-65
2021/12/16 10:08:09;;;;;;;36.97;15.52;;;7.90;99.90;;;;;;5001653;28;20065;-65
2021/12/16 10:10:36;;;;;;;43.10;15.18;;;7.80;99.90;;;;;;4982667;28;20039;-65
2021/12/16 10:13:03;;;;;;;32.60;12.93;;;7.80;99.90;;;;;;4997210;28;20038;-66
2021/12/16 10:18:09;;;;;;;26.45;13.70;;;;;;;;;;4995919;28;20046;-66
2021/12/16 10:20:45;;;;;;;33.58;14.45;;;7.80;99.90;;;;;;4994959;28;20049;-65
2021/12/16 10:23:13;;;;;;;33.38;13.88;;;;;;;;;;4991293;28;20045;-65
2021/12/16 10:25:41;;;;;;;46.25;15.43;;;;;;;;;;4975883;28;20035;-65
2021/12/16 10:28:13;;;;;;;36.17;13.88;;;7.90;99.90;;;;;;4987503;28;20053;-65
2021/12/16 10:31:04;;;;;;;35.28;14.82;;;8.00;99.90;;;;;;4990633;28;20066;-64
2021/12/16 10:33:30;;;;;;;36.60;15.48;;;;;;;;;;4991478;28;20034;-64
2021/12/16 10:36:00;;;;;;;26.30;14.60;;;8.10;99.90;;;;;;4990546;28;20057;-63
2021/12/16 10:38:26;;;;;;;34.08;15.40;;;;;;;;;;4994153;28;20038;-65
2021/12/16 10:40:54;;;;;;;34.28;14.38;;;8.30;99.90;;;;;;4992912;28;20538;-65
2021/12/16 10:43:22;;;;;;;55.33;14.75;;;8.30;99.90;;;;;;4989742;28;20445;-66
2021/12/16 10:45:52;;;;;;;30.17;13.25;;;8.20;99.90;;;;;;4991803;28;20054;-66
2021/12/16 10:48:23;;;;;;;22.40;13.88;;;8.30;99.90;;;;;;4993179;28;20042;-66
2021/12/16 10:50:57;;;;;;;34.63;14.35;;;8.30;99.90;;;;;;4988368;28;20042;-66
2021/12/16 10:53:43;;;;;;;35.30;15.02;;;8.40;99.90;;;;;;4980821;28;20045;-66
2021/12/16 10:56:09;;;;;;;24.17;14.23;;;;;;;;;;4975585;28;20043;-65
2021/12/16 10:58:53;;;;;;;26.38;16.15;;;8.40;99.90;;;;;;4974692;28;20049;-64
2021/12/16 11:01:39;;;;;;;32.20;16.00;;;8.40;99.90;;;;;;4979667;28;20093;-65
2021/12/16 11:04:09;;;;;;;30.77;14.98;;;8.40;99.90;;;;;;4985018;28;20042;-64
2021/12/16 11:06:37;;;;;;;27.67;15.52;;;;;;;;;;4992260;28;20042;-65
2021/12/16 11:09:28;;;;;;;27.10;15.05;;;8.50;99.90;;;;;;4992381;28;20396;-64
2021/12/16 11:12:28;;;;;;;30.40;15.18;;;8.60;99.90;;;;;;4988373;28;20403;-65
2021/12/16 11:15:06;;;;;;;26.83;14.98;;;;;;;;;;4990473;28;20053;-65
2021/12/16 11:17:36;;;;;;;32.35;15.02;;;8.40;99.90;;;;;;4990521;28;20038;-65
2021/12/16 11:20:11;;;;;;;29.60;15.30;;;8.60;99.90;;;;;;4992519;28;20124;-65
2021/12/16 11:22:38;;;;;;;33.30;16.50;;;8.50;99.90;;;;;;4992534;28;20042;-65
2021/12/16 11:25:24;;;;;;;33.70;16.52;;;8.40;99.90;;;;;;4990825;28;20047;-65
2021/12/16 11:28:05;;;;;;;28.65;15.73;;;8.50;99.90;;;;;;4988209;28;20062;-64
2021/12/16 11:30:38;;;;;;;33.28;16.50;;;8.50;99.90;;;;;;4988433;28;20042;-64
2021/12/16 11:33:14;;;;;;;35.55;16.15;;;8.20;99.90;;;;;;4990189;28;20081;-64
2021/12/16 11:35:44;;;;;;;36.60;16.63;;;8.50;99.90;;;;;;4987214;28;20117;-65
2021/12/16 11:38:16;;;;;;;30.65;16.33;;;;;;;;;;4990305;28;20507;-65
2021/12/16 11:41:05;;;;;;;38.75;18.33;;;8.50;99.90;;;;;;4989853;28;20085;-65
2021/12/16 11:43:41;;;;;;;34.92;15.98;;;8.60;99.90;;;;;;4989645;28;20491;-65
2021/12/16 11:46:27;;;;;;;38.80;17.73;;;8.70;99.90;;;;;;4973625;28;20046;-65
2021/12/16 11:48:55;;;;;;;31.27;16.88;;;8.50;99.90;;;;;;4988438;28;20239;-66
2021/12/16 11:51:28;;;;;;;41.20;18.02;;;8.60;99.90;;;;;;4987132;28;20105;-64
2021/12/16 11:53:58;;;;;;;39.78;17.92;;;8.70;99.90;;;;;;4989550;28;20510;-62
2021/12/16 11:56:46;;;;;;;36.95;17.63;;;8.70;99.90;;;;;;4988587;28;20557;-63
2021/12/16 11:59:24;;;;;;;40.22;18.30;;;8.80;99.90;;;;;;4988504;28;20488;-63
2021/12/16 12:01:51;;;;;;;36.92;17.73;;;8.60;99.90;;;;;;4989477;28;20038;-63
2021/12/16 12:04:17;;;;;;;35.58;16.85;;;;;;;;;;4991196;28;20114;-62
2021/12/16 12:06:44;;;;;;;44.65;17.50;;;8.60;99.90;;;;;;4991446;28;20065;-62
2021/12/16 12:09:11;;;;;;;45.55;18.70;;;;;;;;;;4991755;28;20074;-63
2021/12/16 12:11:40;;;;;;;45.72;18.17;;;8.70;99.90;;;;;;4990518;28;20046;-67
2021/12/16 12:14:10;;;;;;;37.67;18.08;;;8.70;99.90;;;;;;4989568;28;20057;-63
2021/12/16 12:16:42;;;;;;;39.08;17.80;;;8.80;99.90;;;;;;4984889;28;20389;-63
2021/12/16 12:19:16;;;;;;;39.70;17.65;;;;;;;;;;4973875;28;20042;-64
2021/12/16 12:21:46;;;;;;;42.72;17.50;;;;;;;;;;4989198;28;20082;-64
2021/12/16 12:24:25;;;;;;;34.33;16.75;;;8.80;99.90;;;;;;4989235;28;20053;-63
2021/12/16 12:27:09;;;;;;;34.13;16.88;;;8.90;99.90;;;;;;4989283;28;20447;-63
2021/12/16 12:29:40;;;;;;;38.28;17.88;;;8.80;99.90;;;;;;4989144;28;20435;-65
2021/12/16 12:32:06;;;;;;;36.35;17.88;;;;;;;;;;4985904;28;20045;-64
2021/12/16 12:34:35;;;;;;;35.83;17.45;;;8.90;99.90;;;;;;4988171;28;20042;-63
2021/12/16 12:37:03;;;;;;;40.50;17.83;;;;;;;;;;4986542;28;20534;-63
2021/12/16 12:39:35;;;;;;;42.60;20.50;;;9.10;99.90;;;;;;4986745;28;20042;-64
2021/12/16 12:42:02;;;;;;;52.53;19.92;;;8.90;99.90;;;;;;4991985;28;20054;-63
2021/12/16 12:44:28;;;;;;;48.40;20.13;;;9.00;99.90;;;;;;4988020;28;20054;-63
2021/12/16 12:46:59;;;;;;;45.70;20.02;;;9.00;99.90;;;;;;4987446;28;20078;-63
2021/12/16 12:49:29;;;;;;;49.78;21.35;;;9.00;99.90;;;;;;4986911;28;20129;-63
2021/12/16 12:52:02;;;;;;;46.97;20.77;;;;;;;;;;4986712;28;20066;-63
2021/12/16 12:54:30;;;;;;;48.20;21.38;;;9.00;99.90;;;;;;4990137;28;20050;-63
2021/12/16 12:57:18;;;;;;;46.53;19.38;;;9.00;99.90;;;;;;4993899;28;20097;-63
2021/12/16 12:59:44;;;;;;;47.60;18.90;;;;;;;;;;4992306;28;20168;-63
2021/12/16 13:02:18;;;;;;;55.97;18.70;;;9.00;99.90;;;;;;4993887;28;20491;-63
2021/12/16 13:04:52;;;;;;;47.72;18.77;;;9.20;99.90;;;;;;4993800;28;20089;-66
2021/12/16 13:07:19;;;;;;;46.97;18.75;;;;;;;;;;4994325;28;20450;-63
2021/12/16 13:09:48;;;;;;;47.30;18.15;;;9.00;99.90;;;;;;4995233;28;20123;-63
2021/12/16 13:24:11;;;;;;;45.65;16.30;;;9.00;99.90;;;;;;4988758;28;20082;-65
2021/12/16 13:26:47;;;;;;;49.58;16.90;;;9.00;99.90;;;;;;4989803;28;20034;-65
2021/12/16 13:29:35;;;;;;;48.17;17.70;;;9.10;99.90;;;;;;4992796;28;20057;-62
2021/12/16 13:35:00;;;;;;;60.20;17.85;;;9.10;99.90;;;;;;4992088;28;20380;-63
2021/12/16 13:37:34;;;;;;;57.55;16.85;;;8.90;99.90;;;;;;5004702;28;20053;-63
2021/12/16 13:40:02;;;;;;;45.50;15.07;;;9.10;99.90;;;;;;4993195;28;20141;-63
2021/12/16 13:43:00;;;;;;;59.67;15.75;;;8.90;99.90;;;;;;4995078;28;20054;-64
2021/12/16 13:45:36;;;;;;;50.97;16.77;;;9.00;99.90;;;;;;4991822;28;20061;-64
2021/12/16 14:00:12;;;;;;;61.60;12.93;;;8.80;99.90;;;;;;4978434;28;20058;-63
2021/12/16 14:05:25;;;;;;;43.45;12.02;;;8.90;99.90;;;;;;4989580;28;20056;-65
2021/12/16 14:08:07;;;;;;;39.10;12.02;;;8.90;99.90;;;;;;4990984;28;20616;-62
2021/12/16 14:10:42;;;;;;;44.33;12.68;;;8.90;99.90;;;;;;4992714;28;20515;-64
2021/12/16 14:25:01;;;;;;;39.15;14.70;;;8.80;99.90;;;;;;4994309;28;20041;-63
2021/12/16 14:46:48;;;;;;;31.25;12.23;;;8.90;99.90;;;;;;4991252;28;20076;-63
2021/12/16 14:49:14;;;;;;;32.38;13.25;;;;;;;;;;4991222;28;20054;-62
2021/12/16 14:51:40;;;;;;;30.27;12.32;;;9.00;99.90;;;;;;4990621;28;20396;-63
2021/12/16 14:54:07;;;;;;;40.65;13.05;;;8.80;99.90;;;;;;4991121;28;20054;-63
2021/12/16 14:56:38;;;;;;;43.10;15.02;;;8.90;99.90;;;;;;4993766;28;20050;-62
2021/12/16 14:59:13;;;;;;;34.70;13.55;;;8.90;99.90;;;;;;4992036;28;20062;-66
2021/12/16 15:01:47;;;;;;;29.63;13.23;;;;;;;;;;4990419;28;20411;-63
2021/12/16 15:04:16;;;;;;;36.97;13.60;;;8.80;99.90;;;;;;4991006;28;20054;-62
2021/12/16 15:06:49;;;;;;;60.88;19.15;;;;;;;;;;4991969;28;20046;-65
2021/12/16 15:09:26;;;;;;;66.43;21.80;;;8.80;99.90;;;;;;4987725;28;20057;-63
2021/12/16 15:17:09;;;;;;;38.80;13.40;;;8.90;99.90;;;;;;4987130;28;20404;-62
2021/12/16 15:39:45;;;;;;;37.15;15.43;;;8.80;99.90;;;;;;4990126;28;20058;-63
2021/12/16 15:45:10;;;;;;;46.10;18.13;;;8.90;99.90;;;;;;4988888;28;20051;-62
2021/12/16 15:47:40;;;;;;;45.47;18.40;;;;;;;;;;4989751;28;20042;-63
2021/12/16 15:50:07;;;;;;;38.00;16.35;;;8.90;99.90;;;;;;4991356;28;20038;-63
2021/12/16 15:52:40;;;;;;;47.55;18.05;;;;;;;;;;4990002;28;20385;-62
2021/12/16 15:55:06;;;;;;;36.40;16.98;;;8.80;99.90;;;;;;4988876;28;20092;-63
2021/12/16 15:57:32;;;;;;;33.03;16.45;;;8.80;99.90;;;;;;4989709;28;20047;-63
2021/12/16 16:00:07;;;;;;;38.03;16.17;;;;;;;;;;4988692;28;20042;-62
2021/12/16 16:02:33;;;;;;;35.45;16.45;;;;;;;;;;4990858;28;20404;-63
2021/12/16 16:04:59;;;;;;;37.50;18.20;;;;;;;;;;4991987;28;20097;-63
2021/12/16 16:07:25;;;;;;;56.00;20.00;;;8.80;99.90;;;;;;4990682;28;20514;-62
2021/12/16 16:09:52;;;;;;;45.38;19.00;;;;;;;;;;4990918;28;20042;-62
2021/12/16 16:12:22;;;;;;;53.28;20.38;;;8.80;99.90;;;;;;4991345;28;20071;-63
2021/12/16 16:14:50;;;;;;;41.58;18.73;;;8.70;99.90;;;;;;4991616;28;20088;-63
2021/12/16 16:17:19;;;;;;;42.05;17.35;;;8.70;99.90;;;;;;4990614;28;20042;-62
2021/12/16 16:19:48;;;;;;;50.75;19.38;;;8.70;99.90;;;;;;4990493;28;20072;-62
2021/12/16 16:22:14;;;;;;;46.90;18.98;;;8.80;99.90;;;;;;4991929;28;20053;-63
2021/12/16 16:24:49;;;;;;;43.97;19.40;;;8.80;99.90;;;;;;4990721;28;20404;-62
2021/12/16 16:27:26;;;;;;;46.20;19.58;;;8.80;99.90;;;;;;4991040;28;20040;-63
2021/12/16 16:29:55;;;;;;;57.13;19.70;;;8.80;99.90;;;;;;4994848;28;20043;-63
2021/12/16 16:32:23;;;;;;;43.33;17.90;;;8.80;99.90;;;;;;4979630;28;20057;-63
2021/12/16 16:34:53;;;;;;;45.30;19.70;;;8.80;99.90;;;;;;4993620;28;20089;-63
2021/12/16 16:37:28;;;;;;;57.28;20.48;;;8.80;99.90;;;;;;4993444;28;20411;-64
2021/12/16 16:39:59;;;;;;;58.83;21.65;;;;;;;;;;4994785;28;20053;-63
2021/12/16 16:42:35;;;;;;;50.65;20.85;;;8.80;99.90;;;;;;5007010;28;20526;-63
2021/12/16 16:45:01;;;;;;;63.80;23.08;;;;;;;;;;4994225;28;20492;-63
2021/12/16 16:47:46;;;;;;;51.22;21.38;;;;;;;;;;4993914;28;20161;-64
2021/12/16 16:50:13;;;;;;;52.67;21.52;;;8.90;99.90;;;;;;4993770;28;20050;-63
2021/12/16 16:52:46;;;;;;;59.45;22.30;;;9.00;99.90;;;;;;4994032;28;20061;-63
2021/12/16 16:55:18;;;;;;;56.97;21.02;;;8.80;99.90;;;;;;4995239;28;20065;-63
2021/12/16 16:57:50;;;;;;;62.65;22.15;;;8.80;99.90;;;;;;4995307;28;20495;-63
2021/12/16 17:00:20;;;;;;;68.47;22.92;;;8.80;99.90;;;;;;4993923;28;20046;-64
2021/12/16 17:02:50;;;;;;;63.22;21.77;;;8.70;99.90;;;;;;4995292;28;20039;-63
2021/12/16 17:05:20;;;;;;;68.93;23.60;;;8.80;99.90;;;;;;4994555;28;20559;-63
2021/12/16 17:07:52;;;;;;;56.40;22.23;;;8.80;99.90;;;;;;4990665;28;20128;-63
2021/12/16 17:10:31;;;;;;;61.20;22.33;;;8.70;99.90;;;;;;4993769;28;20042;-63
2021/12/16 17:13:06;;;;;;;72.75;24.77;;;8.60;99.90;;;;;;4981641;28;20039;-63